Time;durP1;ratioP1;P1;durP2;ratioP2;P2;SDS_P1;SDS_P2;PMS_P1;PMS_P2;Temp;Humidity;BMP_temperature;BMP_pressure;BME280_temperature;BME280_humidity;BME280_pressure;Samples;Min_cycle;Max_cycle;Signal;HPM_P1;HPM_P2
2022/09/20 00:00:51;;;;;;;12.15;2.53;;;36.90;31.40;;;;;;5047290;28;20025;-62
2022/09/20 00:03:17;;;;;;;14.95;3.20;;;36.90;31.80;;;;;;5046840;28;20031;-62
2022/09/20 00:05:46;;;;;;;12.73;2.67;;;36.90;31.60;;;;;;5047948;28;20056;-62
2022/09/20 00:08:15;;;;;;;13.05;3.10;;;36.90;32.00;;;;;;5046308;28;20037;-63
2022/09/20 00:10:42;;;;;;;17.17;3.45;;;36.80;31.90;;;;;;5048165;28;20049;-65
2022/09/20 00:13:11;;;;;;;20.58;3.28;;;36.80;31.80;;;;;;5048741;28;20043;-65
2022/09/20 00:15:42;;;;;;;11.60;2.72;;;36.70;32.00;;;;;;5064149;28;20525;-61
2022/09/20 00:18:10;;;;;;;16.65;3.40;;;36.40;32.60;;;;;;5031608;28;20397;-66
2022/09/20 00:20:49;;;;;;;16.08;3.35;;;36.50;32.70;;;;;;5031405;28;20094;-66
2022/09/20 00:23:16;;;;;;;13.73;3.60;;;36.50;32.30;;;;;;5047249;28;20555;-63
2022/09/20 00:25:45;;;;;;;10.18;2.58;;;36.50;33.70;;;;;;5047603;28;20029;-65
2022/09/20 00:28:12;;;;;;;14.23;3.13;;;36.40;33.50;;;;;;5047842;28;20368;-64
2022/09/20 00:30:38;;;;;;;15.68;3.25;;;36.40;32.60;;;;;;5047318;28;21121;-64
2022/09/20 00:33:05;;;;;;;10.30;2.50;;;36.40;31.90;;;;;;5047081;28;20414;-62
2022/09/20 00:35:31;;;;;;;9.25;2.60;;;36.40;32.70;;;;;;5049049;28;20028;-64
2022/09/20 00:37:58;;;;;;;15.02;2.90;;;36.30;32.50;;;;;;5051276;28;20036;-63
2022/09/20 00:40:27;;;;;;;11.15;2.63;;;36.30;32.10;;;;;;5047404;28;20032;-65
2022/09/20 00:42:54;;;;;;;13.93;3.25;;;36.20;32.20;;;;;;5046672;28;20024;-63
2022/09/20 00:45:26;;;;;;;13.18;2.67;;;36.10;32.20;;;;;;5046445;28;20028;-63
2022/09/20 00:47:56;;;;;;;18.20;3.13;;;36.00;33.10;;;;;;5046937;28;20048;-63
2022/09/20 00:50:43;;;;;;;12.32;3.10;;;35.90;33.20;;;;;;5047437;28;20017;-63
2022/09/20 00:53:25;;;;;;;10.15;3.20;;;35.80;32.10;;;;;;5058136;28;20048;-63
2022/09/20 00:56:00;;;;;;;16.70;3.10;;;35.70;32.10;;;;;;5047953;28;20017;-64
2022/09/20 00:58:29;;;;;;;14.05;2.90;;;35.70;32.80;;;;;;5046555;28;20033;-63
2022/09/20 01:00:56;;;;;;;20.05;3.53;;;35.50;32.40;;;;;;5030914;28;20029;-64
2022/09/20 01:03:30;;;;;;;16.67;3.70;;;35.50;32.80;;;;;;5051078;28;20021;-64
2022/09/20 01:05:58;;;;;;;13.13;3.47;;;35.50;33.50;;;;;;5051075;28;20060;-64
2022/09/20 01:08:25;;;;;;;16.73;3.75;;;35.30;32.50;;;;;;5050941;28;20112;-64
2022/09/20 01:10:52;;;;;;;15.35;3.33;;;35.20;32.50;;;;;;5049717;28;20045;-64
2022/09/20 01:13:19;;;;;;;10.55;3.75;;;35.20;32.70;;;;;;5050492;28;20391;-63
2022/09/20 01:15:48;;;;;;;13.05;3.55;;;35.10;32.40;;;;;;5052713;28;20147;-65
2022/09/20 01:18:17;;;;;;;16.73;4.45;;;35.10;32.40;;;;;;5050817;28;20544;-65
2022/09/20 01:20:46;;;;;;;23.35;4.18;;;35.00;32.70;;;;;;5055128;28;20078;-64
2022/09/20 01:23:22;;;;;;;17.05;3.67;;;34.80;32.90;;;;;;5050468;28;20068;-65
2022/09/20 01:25:49;;;;;;;13.73;3.65;;;34.80;33.40;;;;;;5049694;28;20021;-65
2022/09/20 01:28:16;;;;;;;15.70;3.53;;;34.70;34.00;;;;;;5051301;28;20068;-63
2022/09/20 01:31:01;;;;;;;15.15;3.60;;;34.60;34.10;;;;;;5050402;28;20507;-63
2022/09/20 01:33:48;;;;;;;27.27;4.18;;;34.60;33.90;;;;;;5051086;28;20095;-63
2022/09/20 01:36:25;;;;;;;17.35;4.43;;;34.50;34.70;;;;;;5050957;28;20079;-62
2022/09/20 01:39:09;;;;;;;18.98;4.03;;;34.30;33.70;;;;;;5051072;28;20123;-63
2022/09/20 01:41:58;;;;;;;10.88;4.15;;;34.20;34.80;;;;;;5050229;28;20530;-65
2022/09/20 01:44:52;;;;;;;16.38;4.10;;;34.10;34.90;;;;;;5049987;28;20029;-64
2022/09/20 01:47:46;;;;;;;21.00;4.32;;;34.00;34.70;;;;;;5050611;28;20077;-65
2022/09/20 01:50:33;;;;;;;20.52;4.00;;;33.90;35.20;;;;;;5051047;28;20592;-63
2022/09/20 01:53:05;;;;;;;;;;;33.80;35.20;;;;;;5051410;28;20024;-63
2022/09/20 01:55:49;;;;;;;16.23;6.72;;;33.70;35.40;;;;;;5050880;28;19916;-64
2022/09/20 01:58:31;;;;;;;22.42;9.55;;;33.60;35.00;;;;;;5050021;28;20060;-64
2022/09/20 02:01:09;;;;;;;21.85;9.90;;;33.50;35.20;;;;;;5051152;28;20028;-64
2022/09/20 02:04:01;;;;;;;23.00;8.35;;;33.40;35.50;;;;;;5050864;28;20070;-64
2022/09/20 02:06:56;;;;;;;17.48;6.20;;;33.30;35.40;;;;;;5052700;28;20111;-64
2022/09/20 02:09:52;;;;;;;15.90;4.38;;;33.20;35.70;;;;;;5048560;28;20048;-65
2022/09/20 02:12:37;;;;;;;17.75;4.78;;;33.20;36.40;;;;;;5010661;28;20033;-65
2022/09/20 02:15:28;;;;;;;17.42;5.65;;;33.00;35.90;;;;;;5064584;28;20017;-65
2022/09/20 02:18:27;;;;;;;18.45;4.15;;;33.00;36.00;;;;;;5049827;28;20029;-64
2022/09/20 02:21:33;;;;;;;16.17;4.70;;;32.90;35.90;;;;;;5049842;28;20024;-63
2022/09/20 02:24:26;;;;;;;11.93;3.97;;;32.90;36.50;;;;;;5046413;28;20135;-64
2022/09/20 02:27:04;;;;;;;21.63;4.90;;;32.70;36.20;;;;;;5031344;28;20040;-64
2022/09/20 02:30:07;;;;;;;25.05;4.90;;;32.70;36.60;;;;;;5049459;28;20062;-64
2022/09/20 02:32:55;;;;;;;32.08;5.50;;;32.60;36.70;;;;;;5034487;28;20050;-64
2022/09/20 02:35:28;;;;;;;27.50;4.82;;;32.60;36.70;;;;;;5049895;28;20024;-64
2022/09/20 02:38:23;;;;;;;22.45;4.93;;;32.40;37.20;;;;;;5050076;28;20028;-63
2022/09/20 02:41:35;;;;;;;20.40;4.32;;;32.40;38.30;;;;;;5049306;28;20024;-63
2022/09/20 02:44:45;;;;;;;26.67;5.05;;;32.30;38.50;;;;;;5021390;28;20055;-64
2022/09/20 02:47:11;;;;;;;28.48;4.97;;;32.20;38.60;;;;;;5049533;28;20102;-63
2022/09/20 02:49:56;;;;;;;30.42;5.60;;;32.10;38.70;;;;;;5048569;28;20032;-63
2022/09/20 02:52:48;;;;;;;24.80;5.43;;;32.10;38.70;;;;;;5049478;28;20017;-64
2022/09/20 02:55:34;;;;;;;28.23;5.60;;;32.00;39.30;;;;;;5046110;28;20021;-63
2022/09/20 02:58:13;;;;;;;28.45;5.53;;;32.00;39.80;;;;;;5048235;28;20487;-64
2022/09/20 03:00:52;;;;;;;37.38;5.75;;;31.90;39.80;;;;;;5064526;28;20043;-63
2022/09/20 03:03:34;;;;;;;29.55;5.68;;;31.80;39.60;;;;;;5031707;28;20025;-64
2022/09/20 03:06:37;;;;;;;29.58;5.53;;;31.80;39.50;;;;;;5048938;28;20090;-64
2022/09/20 03:09:30;;;;;;;33.33;6.32;;;31.70;40.30;;;;;;5050063;28;20111;-63
2022/09/20 03:12:21;;;;;;;36.10;5.72;;;31.70;40.40;;;;;;5045524;28;20479;-63
2022/09/20 03:15:16;;;;;;;34.78;6.28;;;31.60;40.70;;;;;;5049843;28;20037;-62
2022/09/20 03:18:04;;;;;;;47.47;6.35;;;31.60;41.30;;;;;;5048216;28;20120;-62
2022/09/20 03:20:52;;;;;;;47.88;6.30;;;31.50;41.90;;;;;;5052478;28;20024;-63
2022/09/20 03:23:40;;;;;;;40.67;6.03;;;31.30;42.10;;;;;;5047265;28;20021;-63
2022/09/20 03:26:17;;;;;;;45.10;6.80;;;31.30;41.60;;;;;;5048355;28;20392;-64
2022/09/20 03:28:49;;;;;;;69.35;7.72;;;31.20;42.00;;;;;;5048452;28;20401;-64
2022/09/20 03:31:41;;;;;;;83.35;9.20;;;31.20;42.10;;;;;;5048354;28;20029;-63
2022/09/20 03:34:50;;;;;;;59.75;8.25;;;31.10;44.80;;;;;;5048775;28;20471;-63
2022/09/20 03:37:35;;;;;;;48.75;7.45;;;31.10;43.20;;;;;;5046069;28;20033;-64
2022/09/20 03:40:05;;;;;;;45.35;7.85;;;31.00;42.50;;;;;;5048279;28;20550;-64
2022/09/20 03:42:32;;;;;;;27.23;7.80;;;31.00;42.30;;;;;;5030646;28;20056;-63
2022/09/20 03:45:11;;;;;;;36.63;6.53;;;31.00;41.50;;;;;;5031035;28;20047;-63
2022/09/20 03:47:41;;;;;;;23.48;5.13;;;31.00;41.50;;;;;;5030897;28;20029;-65
2022/09/20 03:50:17;;;;;;;20.50;3.65;;;31.10;39.60;;;;;;5046575;28;20029;-62
2022/09/20 03:53:24;;;;;;;28.30;4.73;;;31.20;39.10;;;;;;5064760;28;20145;-63
2022/09/20 03:55:53;;;;;;;20.13;4.47;;;31.20;39.30;;;;;;5041504;28;20499;-63
2022/09/20 03:58:57;;;;;;;18.52;3.90;;;31.20;40.60;;;;;;5046825;28;20037;-65
2022/09/20 04:01:33;;;;;;;24.95;4.63;;;31.20;40.20;;;;;;5061053;28;20540;-66
2022/09/20 04:04:33;;;;;;;19.43;4.30;;;31.20;40.80;;;;;;5046938;28;20032;-64
2022/09/20 04:07:25;;;;;;;24.30;4.88;;;31.10;40.60;;;;;;5048907;28;20281;-63
2022/09/20 04:10:15;;;;;;;25.63;4.25;;;31.00;40.40;;;;;;5047642;28;20031;-63
2022/09/20 04:13:00;;;;;;;37.65;4.20;;;31.00;41.00;;;;;;5045318;28;20036;-66
2022/09/20 04:15:48;;;;;;;23.27;3.83;;;31.00;40.50;;;;;;5047071;28;20112;-66
2022/09/20 04:18:55;;;;;;;22.15;4.18;;;31.00;41.20;;;;;;5046535;28;20536;-64
2022/09/20 04:22:00;;;;;;;19.92;4.18;;;31.00;41.60;;;;;;4993869;28;20048;-65
2022/09/20 04:24:45;;;;;;;14.13;4.63;;;30.80;41.60;;;;;;5025151;28;20036;-69
2022/09/20 04:27:24;;;;;;;24.08;5.53;;;30.80;41.80;;;;;;5024834;28;20029;-66
2022/09/20 04:30:19;;;;;;;16.00;5.50;;;30.80;42.00;;;;;;5026317;28;20036;-65
2022/09/20 04:33:26;;;;;;;29.17;6.38;;;30.70;41.80;;;;;;5010141;28;20112;-66
2022/09/20 04:39:00;;;;;;;33.72;6.30;;;30.60;43.10;;;;;;5025795;28;20088;-64
2022/09/20 04:41:42;;;;;;;30.40;8.25;;;30.60;43.30;;;;;;5009921;28;20083;-66
2022/09/20 04:44:40;;;;;;;41.13;6.53;;;30.50;43.30;;;;;;5009837;28;20114;-67
2022/09/20 04:47:36;;;;;;;33.83;11.82;;;30.50;43.30;;;;;;4990453;28;20030;-64
2022/09/20 04:50:11;;;;;;;27.20;7.28;;;30.40;43.10;;;;;;5006391;28;20038;-66
2022/09/20 04:52:53;;;;;;;31.67;13.40;;;30.40;43.50;;;;;;5006809;28;20026;-64
2022/09/20 04:55:31;;;;;;;35.35;13.32;;;30.30;43.80;;;;;;5005744;28;20022;-64
2022/09/20 04:58:19;;;;;;;19.33;8.20;;;30.30;44.00;;;;;;5005333;28;20543;-64
2022/09/20 05:01:16;;;;;;;18.90;6.63;;;30.20;45.20;;;;;;5005416;28;20044;-64
2022/09/20 05:04:18;;;;;;;13.13;7.20;;;30.10;44.60;;;;;;5005280;28;20034;-65
2022/09/20 05:07:24;;;;;;;19.88;6.35;;;30.00;44.30;;;;;;4990864;28;20048;-64
2022/09/20 05:10:14;;;;;;;23.55;6.43;;;30.00;44.40;;;;;;4970725;28;20120;-65
2022/09/20 05:12:46;;;;;;;16.95;6.63;;;29.90;45.10;;;;;;4987118;28;20031;-64
2022/09/20 05:15:55;;;;;;;22.20;7.53;;;29.90;45.90;;;;;;4992319;28;20057;-66
2022/09/20 05:18:52;;;;;;;22.42;8.23;;;29.80;45.80;;;;;;4989740;28;21334;-65
2022/09/20 05:21:28;;;;;;;31.08;7.95;;;29.70;46.60;;;;;;4990160;28;20026;-64
2022/09/20 05:24:03;;;;;;;24.00;7.50;;;29.70;45.00;;;;;;5047559;28;20041;-63
2022/09/20 05:26:33;;;;;;;25.03;6.20;;;29.60;45.80;;;;;;5047648;28;20033;-64
2022/09/20 05:29:09;;;;;;;20.13;5.97;;;29.60;46.00;;;;;;5047702;28;20043;-66
2022/09/20 05:32:06;;;;;;;27.17;7.90;;;29.50;45.60;;;;;;5047193;28;20086;-65
2022/09/20 05:34:43;;;;;;;45.83;25.35;;;29.40;45.70;;;;;;5048091;28;20030;-63
2022/09/20 05:37:26;;;;;;;22.20;6.30;;;29.50;45.20;;;;;;5047231;28;20514;-65
2022/09/20 05:40:16;;;;;;;16.08;4.53;;;29.50;45.50;;;;;;5048775;28;20060;-64
2022/09/20 05:42:48;;;;;;;12.75;3.97;;;29.50;45.40;;;;;;5046557;28;20192;-65
2022/09/20 05:45:44;;;;;;;20.90;3.95;;;29.50;45.70;;;;;;5046331;28;20393;-65
2022/09/20 05:48:38;;;;;;;16.33;4.45;;;29.40;45.60;;;;;;5049952;28;20558;-67
2022/09/20 05:51:40;;;;;;;14.13;4.05;;;29.40;46.10;;;;;;5049432;28;20518;-65
2022/09/20 05:54:12;;;;;;;13.25;4.63;;;29.40;46.30;;;;;;4994271;28;20416;-66
2022/09/20 05:56:58;;;;;;;21.70;4.78;;;29.40;46.50;;;;;;5009112;28;20048;-64
2022/09/20 05:59:24;;;;;;;11.73;4.45;;;29.30;46.70;;;;;;5011326;28;20045;-64
2022/09/20 06:02:27;;;;;;;19.17;4.65;;;29.30;47.00;;;;;;5009220;28;20516;-67
2022/09/20 06:05:02;;;;;;;16.27;4.43;;;29.30;47.70;;;;;;5002920;28;20111;-64
2022/09/20 06:07:53;;;;;;;18.10;4.50;;;29.20;47.90;;;;;;4996053;28;20056;-65
2022/09/20 06:10:50;;;;;;;21.58;4.35;;;29.20;48.30;;;;;;5015695;28;20071;-65
2022/09/20 06:13:33;;;;;;;18.30;3.65;;;29.20;47.80;;;;;;5008765;28;20068;-64
2022/09/20 06:16:05;;;;;;;15.90;4.18;;;29.10;48.10;;;;;;5009029;28;20614;-64
2022/09/20 06:19:01;;;;;;;27.13;5.47;;;29.00;48.20;;;;;;4993114;28;20600;-65
2022/09/20 06:21:40;;;;;;;13.30;4.28;;;29.10;48.90;;;;;;4978418;28;20073;-64
2022/09/20 06:24:34;;;;;;;15.18;4.07;;;29.00;48.90;;;;;;5010096;28;20075;-64
2022/09/20 06:27:07;;;;;;;18.30;4.10;;;28.90;48.80;;;;;;5009248;28;20762;-63
2022/09/20 06:29:38;;;;;;;14.43;3.92;;;28.90;48.40;;;;;;5017644;28;20130;-64
2022/09/20 06:32:04;;;;;;;20.13;4.28;;;28.90;48.30;;;;;;5049648;28;20462;-65
2022/09/20 06:34:31;;;;;;;20.05;3.38;;;28.90;49.20;;;;;;5050544;28;20104;-66
2022/09/20 06:43:20;;;;;;;21.27;3.72;;;28.80;48.90;;;;;;5049128;28;20463;-63
2022/09/20 06:45:47;;;;;;;17.42;4.05;;;28.70;49.10;;;;;;5049792;28;20488;-64
2022/09/20 06:48:14;;;;;;;16.42;4.18;;;28.70;49.30;;;;;;5049156;28;20071;-63
2022/09/20 06:50:44;;;;;;;15.77;3.70;;;28.70;49.50;;;;;;5049122;28;20066;-64
2022/09/20 06:53:17;;;;;;;20.08;4.40;;;28.70;50.10;;;;;;5049704;28;20047;-64
2022/09/20 06:55:44;;;;;;;14.07;4.05;;;28.60;50.30;;;;;;5049201;28;20076;-64
2022/09/20 06:58:11;;;;;;;17.38;3.50;;;28.50;50.00;;;;;;5047393;28;20500;-66
2022/09/20 07:00:40;;;;;;;26.85;4.65;;;28.40;49.80;;;;;;5049521;28;20086;-65
2022/09/20 07:03:07;;;;;;;16.73;3.83;;;28.40;50.50;;;;;;5050023;28;20132;-64
2022/09/20 07:05:35;;;;;;;15.32;3.90;;;28.40;50.50;;;;;;5049268;28;20042;-65
2022/09/20 07:08:01;;;;;;;13.50;4.25;;;28.40;50.40;;;;;;5016406;28;20070;-65
2022/09/20 07:10:29;;;;;;;15.30;4.80;;;28.40;51.00;;;;;;5056533;28;20081;-65
2022/09/20 07:13:00;;;;;;;19.05;4.47;;;28.30;50.70;;;;;;5048914;28;20044;-64
2022/09/20 07:15:28;;;;;;;15.00;3.78;;;28.20;50.70;;;;;;5047114;28;20040;-64
2022/09/20 07:17:54;;;;;;;11.93;3.78;;;28.20;51.30;;;;;;5032260;28;20047;-65
2022/09/20 07:20:22;;;;;;;16.90;3.85;;;28.30;51.40;;;;;;5048487;28;20511;-65
2022/09/20 07:22:49;;;;;;;15.13;4.40;;;28.30;51.00;;;;;;5049874;28;20603;-64
2022/09/20 07:25:17;;;;;;;11.45;3.55;;;28.30;51.00;;;;;;5048609;28;20060;-65
2022/09/20 07:27:45;;;;;;;12.93;4.00;;;28.20;50.80;;;;;;5047819;28;20069;-64
2022/09/20 07:30:13;;;;;;;13.50;4.53;;;28.20;51.40;;;;;;5048598;28;20109;-64
2022/09/20 07:32:40;;;;;;;15.23;4.32;;;28.20;51.40;;;;;;5053033;28;20571;-63
2022/09/20 07:35:10;;;;;;;16.42;3.88;;;28.20;51.60;;;;;;5049242;28;20046;-65
2022/09/20 07:37:40;;;;;;;18.77;4.45;;;28.20;51.50;;;;;;5048834;28;20049;-64
2022/09/20 07:40:09;;;;;;;15.02;3.97;;;28.20;51.60;;;;;;5048952;28;20463;-65
2022/09/20 07:42:35;;;;;;;20.15;4.00;;;28.30;51.20;;;;;;5048221;28;20052;-64
2022/09/20 07:45:02;;;;;;;16.73;3.70;;;28.30;51.20;;;;;;5048243;28;20047;-65
2022/09/20 07:47:35;;;;;;;17.45;3.83;;;28.30;51.00;;;;;;5047700;28;20068;-64
2022/09/20 07:50:03;;;;;;;12.23;4.00;;;28.20;51.00;;;;;;5015063;28;20405;-65
2022/09/20 07:52:30;;;;;;;16.83;4.03;;;28.20;51.20;;;;;;5047963;28;20771;-64
2022/09/20 07:54:56;;;;;;;22.42;4.70;;;28.10;51.80;;;;;;5048835;28;20046;-65
2022/09/20 07:57:23;;;;;;;11.00;4.90;;;28.10;51.30;;;;;;5031252;28;20456;-67
2022/09/20 07:59:49;;;;;;;15.50;5.10;;;28.10;51.30;;;;;;5047895;28;20064;-64
2022/09/20 08:02:16;;;;;;;18.98;5.32;;;28.10;51.30;;;;;;5030375;28;20157;-64
2022/09/20 08:04:42;;;;;;;17.42;5.38;;;28.10;51.30;;;;;;5043468;28;20050;-65
2022/09/20 08:07:09;;;;;;;15.02;5.20;;;28.10;51.20;;;;;;5049401;28;20101;-64
2022/09/20 08:09:36;;;;;;;28.02;5.78;;;28.00;51.40;;;;;;5047670;28;20096;-66
2022/09/20 08:12:04;;;;;;;27.80;6.28;;;28.00;51.40;;;;;;5046769;28;20077;-65
2022/09/20 08:14:30;;;;;;;34.17;6.28;;;27.90;51.50;;;;;;5058499;28;20052;-65
2022/09/20 08:16:58;;;;;;;41.80;8.88;;;27.90;51.80;;;;;;5046411;28;20494;-66
2022/09/20 08:19:25;;;;;;;57.83;10.52;;;27.90;51.70;;;;;;5047644;28;20058;-64
2022/09/20 08:21:53;;;;;;;53.08;10.93;;;27.90;52.30;;;;;;5031308;28;20478;-64
2022/09/20 08:24:19;;;;;;;62.40;10.07;;;27.90;51.90;;;;;;5048218;28;20044;-64
2022/09/20 08:26:47;;;;;;;45.55;11.07;;;28.00;52.10;;;;;;5047068;28;20181;-63
2022/09/20 08:29:14;;;;;;;39.70;10.43;;;27.90;51.80;;;;;;5033999;28;20056;-66
2022/09/20 08:31:41;;;;;;;56.83;10.93;;;27.90;53.10;;;;;;5048669;28;20046;-64
2022/09/20 08:34:09;;;;;;;41.75;10.95;;;27.80;53.20;;;;;;5047904;28;20370;-65
2022/09/20 08:36:40;;;;;;;39.55;9.18;;;27.70;53.10;;;;;;5047628;28;20528;-66
2022/09/20 08:39:06;;;;;;;32.53;8.43;;;27.60;52.50;;;;;;5047334;28;20062;-64
2022/09/20 08:41:47;;;;;;;29.33;7.10;;;27.70;53.50;;;;;;5048599;28;20051;-65
2022/09/20 08:44:34;;;;;;;32.90;8.57;;;27.60;53.40;;;;;;5047696;28;20051;-65
2022/09/20 08:47:20;;;;;;;31.88;8.18;;;27.60;53.40;;;;;;5047077;28;20103;-66
2022/09/20 08:49:47;;;;;;;30.50;9.30;;;27.60;53.10;;;;;;5046980;28;20094;-66
2022/09/20 08:52:21;;;;;;;30.17;8.07;;;27.60;53.00;;;;;;5047763;28;20071;-65
2022/09/20 08:54:47;;;;;;;32.72;8.50;;;27.60;54.10;;;;;;5031813;28;20047;-65
2022/09/20 08:57:19;;;;;;;21.30;8.10;;;27.40;53.60;;;;;;5047718;28;20079;-65
2022/09/20 08:59:46;;;;;;;35.83;8.85;;;27.40;53.50;;;;;;5046868;28;20080;-63
2022/09/20 09:02:19;;;;;;;32.20;9.25;;;27.30;54.20;;;;;;5047359;28;20066;-64
2022/09/20 09:04:47;;;;;;;29.05;8.93;;;27.20;54.00;;;;;;5047039;28;20534;-67
2022/09/20 09:07:20;;;;;;;27.20;8.38;;;27.20;53.80;;;;;;5051533;28;20475;-65
2022/09/20 09:09:50;;;;;;;24.70;9.00;;;27.20;54.10;;;;;;5046749;28;20055;-66
2022/09/20 09:12:26;;;;;;;36.22;9.60;;;27.20;54.60;;;;;;5063300;28;20791;-63
2022/09/20 09:14:58;;;;;;;28.75;8.73;;;27.20;54.40;;;;;;5047366;28;20519;-66
2022/09/20 09:17:27;;;;;;;34.53;9.45;;;27.20;55.60;;;;;;5043293;28;21571;-64
2022/09/20 09:20:13;;;;;;;24.50;8.10;;;27.20;55.40;;;;;;5046883;28;20065;-65
2022/09/20 09:22:42;;;;;;;27.38;7.97;;;27.10;55.10;;;;;;5049333;28;20060;-65
2022/09/20 09:25:17;;;;;;;28.38;8.38;;;27.20;54.90;;;;;;5051471;28;20400;-65
2022/09/20 09:28:06;;;;;;;21.70;7.75;;;27.10;54.70;;;;;;5051599;28;20094;-65
2022/09/20 09:30:50;;;;;;;26.27;8.05;;;27.10;54.60;;;;;;5050622;28;20464;-65
2022/09/20 09:33:31;;;;;;;25.02;7.28;;;27.00;54.40;;;;;;5050771;28;20573;-64
2022/09/20 09:36:03;;;;;;;23.83;7.60;;;27.00;55.10;;;;;;5050306;28;20105;-64
2022/09/20 09:38:32;;;;;;;22.35;8.23;;;27.00;55.00;;;;;;5051341;28;20073;-65
2022/09/20 09:41:07;;;;;;;26.45;7.40;;;26.90;54.40;;;;;;5034677;28;20085;-64
2022/09/20 09:43:36;;;;;;;29.23;7.47;;;26.90;54.30;;;;;;5050858;28;20079;-63
2022/09/20 09:46:22;;;;;;;28.23;7.38;;;26.90;53.80;;;;;;5051004;28;20139;-64
2022/09/20 09:49:34;;;;;;;31.48;7.32;;;26.90;53.10;;;;;;5050845;28;20068;-65
2022/09/20 09:52:26;;;;;;;28.13;7.40;;;27.00;53.10;;;;;;5050234;28;20541;-64
2022/09/20 09:55:00;;;;;;;23.55;7.88;;;27.00;53.10;;;;;;5049963;28;20044;-63
2022/09/20 09:57:27;;;;;;;28.98;8.32;;;26.90;53.20;;;;;;5049957;28;20416;-63
2022/09/20 09:59:56;;;;;;;17.48;7.53;;;26.90;54.20;;;;;;5052228;28;20150;-64
2022/09/20 10:02:47;;;;;;;19.08;7.78;;;26.80;54.50;;;;;;5050739;28;20130;-64
2022/09/20 10:05:29;;;;;;;23.55;8.05;;;26.70;54.10;;;;;;5050730;28;20061;-66
2022/09/20 10:07:55;;;;;;;23.02;8.48;;;26.60;54.70;;;;;;5051725;28;20071;-64
2022/09/20 10:10:56;;;;;;;19.00;7.22;;;26.60;54.10;;;;;;5051172;28;20193;-63
2022/09/20 10:13:42;;;;;;;29.00;8.30;;;26.70;54.00;;;;;;5033899;28;20061;-65
2022/09/20 10:16:28;;;;;;;23.92;7.57;;;26.70;54.20;;;;;;5033627;28;20512;-64
2022/09/20 10:18:57;;;;;;;25.70;8.15;;;26.80;53.80;;;;;;5047454;28;20109;-63
2022/09/20 10:21:33;;;;;;;23.83;8.15;;;26.80;53.50;;;;;;5055938;28;20062;-65
2022/09/20 10:24:29;;;;;;;22.80;7.73;;;26.70;53.20;;;;;;5033535;28;20506;-65
2022/09/20 10:27:24;;;;;;;20.40;7.15;;;26.60;52.90;;;;;;5050382;28;21469;-65
2022/09/20 10:30:10;;;;;;;26.63;7.82;;;26.60;54.00;;;;;;5040617;28;20088;-65
2022/09/20 10:33:01;;;;;;;24.83;7.57;;;26.50;54.50;;;;;;5045273;28;20396;-65
2022/09/20 10:35:40;;;;;;;19.92;8.30;;;26.50;53.70;;;;;;5050359;28;20069;-67
2022/09/20 10:38:24;;;;;;;21.85;7.50;;;26.50;53.70;;;;;;5049848;28;20071;-65
2022/09/20 10:44:22;;;;;;;26.45;7.85;;;26.40;54.40;;;;;;5050932;28;20079;-64
2022/09/20 10:47:19;;;;;;;23.02;7.72;;;26.30;54.50;;;;;;5049259;28;20057;-64
2022/09/20 10:50:00;;;;;;;33.22;8.57;;;26.20;54.20;;;;;;5051070;28;20054;-63
2022/09/20 10:52:30;;;;;;;27.25;9.05;;;26.30;54.70;;;;;;5049300;28;20119;-65
2022/09/20 10:55:24;;;;;;;21.23;8.20;;;26.30;54.00;;;;;;5049000;28;20054;-63
2022/09/20 10:58:14;;;;;;;28.20;7.82;;;26.30;54.90;;;;;;5049216;28;20059;-64
2022/09/20 11:00:41;;;;;;;20.73;7.75;;;26.30;53.70;;;;;;5051077;28;20076;-64
2022/09/20 11:03:38;;;;;;;21.60;7.90;;;26.30;53.70;;;;;;5052705;28;20075;-63
2022/09/20 11:06:16;;;;;;;;;;;26.30;53.60;;;;;;5035470;28;20057;-64
2022/09/20 11:08:49;;;;;;;23.73;8.18;;;26.20;53.40;;;;;;5048759;28;19962;-68
2022/09/20 11:11:20;;;;;;;23.08;7.25;;;26.20;54.70;;;;;;5049166;28;20096;-64
2022/09/20 11:13:59;;;;;;;20.08;7.78;;;26.20;53.80;;;;;;5048905;28;20062;-63
2022/09/20 11:16:28;;;;;;;20.65;8.10;;;26.10;53.50;;;;;;5048187;28;20110;-60
2022/09/20 11:19:25;;;;;;;21.73;6.95;;;26.00;54.80;;;;;;5046812;28;20072;-65
2022/09/20 11:21:59;;;;;;;;;;;26.00;53.60;;;;;;5065608;28;20548;-63
2022/09/20 11:24:44;;;;;;;13.25;6.22;;;26.00;52.90;;;;;;5048636;28;19948;-64
2022/09/20 11:27:46;;;;;;;26.10;6.35;;;26.00;51.60;;;;;;5049438;28;20647;-64
2022/09/20 11:30:23;;;;;;;19.45;5.75;;;26.00;50.70;;;;;;5019826;28;20116;-63
2022/09/20 11:32:56;;;;;;;16.58;5.65;;;26.00;51.20;;;;;;5047882;28;20511;-65
2022/09/20 11:35:33;;;;;;;19.88;5.38;;;26.00;50.10;;;;;;5048260;28;20511;-63
2022/09/20 11:38:08;;;;;;;;;;;26.00;49.20;;;;;;5049329;28;20093;-63
2022/09/20 11:40:41;;;;;;;21.75;6.55;;;26.00;49.50;;;;;;5048786;28;19970;-65
2022/09/20 11:43:09;;;;;;;27.00;6.60;;;26.00;49.90;;;;;;5046810;28;20065;-63
2022/09/20 11:45:39;;;;;;;17.20;6.00;;;26.00;50.40;;;;;;5014031;28;20213;-63
2022/09/20 11:48:24;;;;;;;19.20;6.50;;;26.00;50.60;;;;;;5032091;28;20075;-63
2022/09/20 11:50:59;;;;;;;17.65;7.25;;;26.00;51.00;;;;;;5047781;28;20061;-63
2022/09/20 11:53:44;;;;;;;27.90;6.78;;;26.00;51.60;;;;;;5048068;28;20551;-63
2022/09/20 11:56:26;;;;;;;20.83;7.25;;;26.00;52.40;;;;;;5047400;28;20225;-63
2022/09/20 11:58:58;;;;;;;24.80;7.35;;;26.00;52.60;;;;;;5030864;28;20064;-65
2022/09/20 12:01:37;;;;;;;18.40;6.47;;;26.00;53.20;;;;;;5049021;28;20063;-64
2022/09/20 12:04:28;;;;;;;19.00;6.93;;;25.90;53.40;;;;;;5032022;28;20064;-64
2022/09/20 12:07:04;;;;;;;28.90;7.53;;;25.90;53.70;;;;;;5047187;28;20434;-63
2022/09/20 12:09:35;;;;;;;;;;;25.80;53.60;;;;;;5048240;28;20073;-64
2022/09/20 12:12:46;;;;;;;23.92;7.18;;;25.80;53.60;;;;;;5047101;28;19980;-64
2022/09/20 12:15:40;;;;;;;22.80;6.15;;;25.80;53.30;;;;;;5046947;28;20056;-63
2022/09/20 12:18:14;;;;;;;25.52;5.80;;;25.70;53.30;;;;;;5050075;28;20050;-63
2022/09/20 12:20:43;;;;;;;24.65;5.80;;;25.70;53.10;;;;;;5044309;28;20063;-63
2022/09/20 12:23:39;;;;;;;22.20;6.03;;;25.70;53.10;;;;;;5047769;28;20058;-63
2022/09/20 12:26:20;;;;;;;17.27;5.97;;;25.70;53.00;;;;;;5030749;28;20147;-63
2022/09/20 12:28:49;;;;;;;21.30;5.40;;;25.60;53.10;;;;;;5046894;28;20074;-65
2022/09/20 12:31:19;;;;;;;19.65;5.03;;;25.60;52.80;;;;;;5048672;28;20052;-65
2022/09/20 12:34:12;;;;;;;15.40;5.55;;;25.60;53.00;;;;;;5047520;28;20056;-65
2022/09/20 12:36:41;;;;;;;17.27;5.32;;;25.60;53.60;;;;;;5048489;28;20121;-65
2022/09/20 12:39:11;;;;;;;18.30;4.85;;;25.60;53.50;;;;;;5031409;28;20440;-64
2022/09/20 12:42:21;;;;;;;20.30;5.35;;;25.60;53.70;;;;;;5049544;28;20094;-64
2022/09/20 12:44:57;;;;;;;19.50;6.68;;;25.60;53.80;;;;;;5042779;28;20113;-65
2022/09/20 12:47:30;;;;;;;27.00;5.43;;;25.40;55.00;;;;;;5060826;28;20082;-64
2022/09/20 12:52:56;;;;;;;19.10;5.82;;;25.40;56.90;;;;;;5047051;28;20445;-63
2022/09/20 12:55:26;;;;;;;23.27;6.30;;;25.30;55.80;;;;;;5050883;28;20076;-64
2022/09/20 12:58:01;;;;;;;27.95;5.95;;;25.40;56.30;;;;;;5050152;28;20060;-64
2022/09/20 13:00:39;;;;;;;27.20;6.53;;;25.40;56.60;;;;;;5050395;28;20071;-64
2022/09/20 13:03:22;;;;;;;42.05;7.90;;;25.40;56.00;;;;;;5068181;28;20056;-65
2022/09/20 13:06:13;;;;;;;26.08;6.88;;;25.40;56.20;;;;;;5052774;28;20158;-64
2022/09/20 13:08:43;;;;;;;32.50;7.80;;;25.40;57.60;;;;;;5050659;28;20694;-64
2022/09/20 13:11:35;;;;;;;36.42;8.20;;;25.30;58.10;;;;;;5063367;28;20105;-64
2022/09/20 13:14:03;;;;;;;47.53;7.82;;;25.40;57.60;;;;;;5051688;28;20072;-64
2022/09/20 13:16:52;;;;;;;40.30;8.40;;;25.40;57.20;;;;;;5051737;28;20056;-66
2022/09/20 13:19:28;;;;;;;30.15;8.00;;;25.30;57.50;;;;;;5036498;28;20087;-65
2022/09/20 13:22:03;;;;;;;40.30;8.43;;;25.30;59.10;;;;;;5049805;28;20465;-64
2022/09/20 13:24:36;;;;;;;40.70;8.43;;;25.20;59.10;;;;;;5052197;28;20390;-63
2022/09/20 13:27:08;;;;;;;38.42;8.23;;;25.20;59.00;;;;;;5051467;28;20807;-64
2022/09/20 13:29:44;;;;;;;43.05;8.50;;;25.00;59.70;;;;;;5050662;28;20482;-64
2022/09/20 13:32:26;;;;;;;43.03;7.80;;;25.00;60.00;;;;;;5049977;28;20183;-66
2022/09/20 13:35:20;;;;;;;40.58;8.05;;;25.10;59.00;;;;;;5050804;28;20065;-64
2022/09/20 13:38:06;;;;;;;37.22;8.05;;;25.20;58.10;;;;;;5050658;28;20065;-64
2022/09/20 13:40:35;;;;;;;47.13;8.73;;;25.20;57.90;;;;;;5050624;28;20416;-64
2022/09/20 13:43:13;;;;;;;49.95;8.70;;;25.10;59.80;;;;;;5050797;28;20088;-64
2022/09/20 13:45:42;;;;;;;41.22;8.93;;;25.10;59.40;;;;;;5050672;28;20168;-66
2022/09/20 13:48:09;;;;;;;55.97;9.80;;;25.10;58.90;;;;;;5034446;28;20081;-65
2022/09/20 13:50:38;;;;;;;52.83;7.72;;;25.10;58.90;;;;;;5050440;28;20572;-66
2022/09/20 13:53:15;;;;;;;34.08;7.45;;;25.20;58.40;;;;;;5049379;28;20068;-65